createdAt,value
2018-10-03T00:00:40.353Z,930.19
2018-10-03T00:01:40.281Z,930.19
2018-10-03T00:02:40.235Z,930.19
2018-10-03T00:03:40.188Z,930.17
2018-10-03T00:04:40.155Z,930.20
2018-10-03T00:05:40.105Z,930.21
2018-10-03T00:06:40.057Z,930.16
2018-10-03T00:07:40.003Z,930.14
2018-10-03T00:08:40.083Z,930.09
2018-10-03T00:09:39.922Z,930.04
2018-10-03T00:10:39.874Z,929.99
2018-10-03T00:11:39.843Z,929.97
2018-10-03T00:12:39.797Z,929.93
2018-10-03T00:13:39.740Z,929.97
2018-10-03T00:14:39.704Z,929.87
2018-10-03T00:15:39.653Z,929.95
2018-10-03T00:16:39.598Z,929.96
2018-10-03T00:17:39.565Z,929.95
2018-10-03T00:18:39.513Z,930.05
2018-10-03T00:19:39.491Z,930.03
2018-10-03T00:20:39.461Z,930.07
2018-10-03T00:21:39.400Z,930.07
2018-10-03T00:22:39.348Z,930.11
2018-10-03T00:23:39.309Z,930.12
2018-10-03T00:24:39.258Z,930.13
2018-10-03T00:25:39.220Z,930.15
2018-10-03T00:26:39.274Z,930.15
2018-10-03T00:27:39.137Z,930.17
2018-10-03T00:28:39.098Z,930.18
2018-10-03T00:29:39.030Z,930.19
2018-10-03T00:30:39.010Z,930.24
2018-10-03T00:31:38.953Z,930.23
2018-10-03T00:32:38.895Z,930.28
2018-10-03T00:33:38.875Z,930.23
2018-10-03T00:34:38.816Z,930.26
2018-10-03T00:35:38.776Z,930.25
2018-10-03T00:36:38.738Z,930.30
2018-10-03T00:37:38.686Z,930.25
2018-10-03T00:38:42.177Z,930.25
2018-10-03T00:39:38.612Z,930.23
2018-10-03T00:40:38.558Z,930.25
2018-10-03T00:41:38.512Z,930.21
2018-10-03T00:42:38.459Z,930.21
2018-10-03T00:43:38.427Z,930.16
2018-10-03T00:44:38.381Z,930.16
2018-10-03T00:45:38.341Z,930.14
2018-10-03T00:46:38.275Z,930.12
2018-10-03T00:47:38.247Z,930.14
2018-10-03T00:48:38.187Z,930.06
2018-10-03T00:49:38.153Z,930.11
2018-10-03T00:50:38.107Z,930.12
2018-10-03T00:51:38.066Z,930.12
2018-10-03T00:52:38.048Z,930.08
2018-10-03T00:53:37.977Z,930.12
2018-10-03T00:54:37.931Z,930.06
2018-10-03T00:55:37.883Z,929.99
2018-10-03T00:56:37.852Z,929.98
2018-10-03T00:57:37.794Z,929.96
2018-10-03T00:58:37.753Z,929.95
2018-10-03T00:59:37.699Z,929.94
2018-10-03T01:00:37.683Z,929.94
2018-10-03T01:01:37.635Z,929.99
2018-10-03T01:02:37.566Z,929.98
2018-10-03T01:03:37.534Z,930.02
2018-10-03T01:04:37.504Z,930.01
2018-10-03T01:05:37.449Z,930.05
2018-10-03T01:06:37.385Z,930.09
2018-10-03T01:07:37.342Z,930.10
2018-10-03T01:08:37.305Z,930.13
2018-10-03T01:09:37.262Z,930.13
2018-10-03T01:10:37.223Z,930.15
2018-10-03T01:11:37.210Z,930.18
2018-10-03T01:12:37.134Z,930.19
2018-10-03T01:13:37.127Z,930.22
2018-10-03T01:14:37.045Z,930.17
2018-10-03T01:15:36.995Z,930.26
2018-10-03T01:16:36.965Z,930.31
2018-10-03T01:17:36.963Z,930.30
2018-10-03T01:18:36.874Z,930.30
2018-10-03T01:19:36.855Z,930.29
2018-10-03T01:20:36.779Z,930.32
2018-10-03T01:21:36.728Z,930.33
2018-10-03T01:22:36.684Z,930.30
2018-10-03T01:23:36.650Z,930.29
2018-10-03T01:24:36.611Z,930.30
2018-10-03T01:25:36.556Z,930.28
2018-10-03T01:26:36.517Z,930.25
2018-10-03T01:27:36.473Z,930.22
2018-10-03T01:28:36.430Z,930.16
2018-10-03T01:29:36.371Z,930.11
2018-10-03T01:30:36.340Z,930.08
2018-10-03T01:31:36.334Z,930.07
2018-10-03T01:32:36.247Z,930.02
2018-10-03T01:33:36.198Z,930.00
2018-10-03T01:34:36.179Z,930.02
2018-10-03T01:35:36.101Z,930.01
2018-10-03T01:36:36.065Z,929.98
2018-10-03T01:37:36.032Z,930.02
2018-10-03T01:38:35.988Z,929.98
2018-10-03T01:39:35.956Z,930.04
2018-10-03T01:40:35.874Z,930.10
2018-10-03T01:41:35.832Z,930.09
2018-10-03T01:42:35.803Z,930.14
2018-10-03T01:43:35.775Z,930.13
2018-10-03T01:44:35.716Z,930.19
2018-10-03T01:45:35.683Z,930.18
2018-10-03T01:46:35.642Z,930.17
2018-10-03T01:47:35.584Z,930.18
2018-10-03T01:48:35.535Z,930.16
2018-10-03T01:49:35.492Z,930.16
2018-10-03T01:50:35.446Z,930.16
2018-10-03T01:51:35.414Z,930.16
2018-10-03T01:52:35.347Z,930.09
2018-10-03T01:53:35.321Z,930.03
2018-10-03T01:54:35.264Z,930.04
2018-10-03T01:55:35.225Z,930.02
2018-10-03T01:56:35.187Z,929.99
2018-10-03T01:57:35.138Z,930.04
2018-10-03T01:58:35.098Z,929.97
2018-10-03T01:59:35.035Z,929.98
2018-10-03T02:00:35.004Z,929.99
2018-10-03T02:01:34.964Z,929.94
2018-10-03T02:02:34.914Z,929.95
2018-10-03T02:03:34.875Z,929.90
2018-10-03T02:04:34.819Z,929.89
2018-10-03T02:05:34.767Z,929.91
2018-10-03T02:06:34.756Z,929.84
2018-10-03T02:07:34.687Z,929.88
2018-10-03T02:08:34.653Z,929.91
2018-10-03T02:09:34.594Z,929.91
2018-10-03T02:10:34.571Z,929.86
2018-10-03T02:11:34.511Z,929.89
2018-10-03T02:12:34.454Z,929.96
2018-10-03T02:13:34.416Z,929.91
2018-10-03T02:14:34.425Z,929.89
2018-10-03T02:15:34.345Z,929.92
2018-10-03T02:16:34.296Z,929.87
2018-10-03T02:17:34.244Z,929.85
2018-10-03T02:18:34.208Z,929.84
2018-10-03T02:19:34.156Z,929.81
2018-10-03T02:20:34.131Z,929.86
2018-10-03T02:21:34.053Z,929.77
2018-10-03T02:22:34.009Z,929.74
2018-10-03T02:23:33.976Z,929.74
2018-10-03T02:24:33.931Z,929.71
2018-10-03T02:25:33.897Z,929.68
2018-10-03T02:26:33.837Z,929.63
2018-10-03T02:27:33.799Z,929.58
2018-10-03T02:28:33.765Z,929.57
2018-10-03T02:29:33.712Z,929.58
2018-10-03T02:30:33.656Z,929.53
2018-10-03T02:31:33.619Z,929.55
2018-10-03T02:32:33.571Z,929.53
2018-10-03T02:33:33.529Z,929.51
2018-10-03T02:34:33.496Z,929.49
2018-10-03T02:35:33.448Z,929.46
2018-10-03T02:36:33.419Z,929.47
2018-10-03T02:37:33.347Z,929.43
2018-10-03T02:38:33.323Z,929.40
2018-10-03T02:39:33.304Z,929.34
2018-10-03T02:40:33.224Z,929.34
2018-10-03T02:41:33.185Z,929.32
2018-10-03T02:42:33.123Z,929.27
2018-10-03T02:43:33.086Z,929.28
2018-10-03T02:44:33.046Z,929.25
2018-10-03T02:45:32.997Z,929.26
2018-10-03T02:46:32.951Z,929.26
2018-10-03T02:47:32.911Z,929.26
2018-10-03T02:48:32.889Z,929.26
2018-10-03T02:49:32.813Z,929.27
2018-10-03T02:50:32.795Z,929.28
2018-10-03T02:51:32.719Z,929.31
2018-10-03T02:52:32.704Z,929.31
2018-10-03T02:53:32.634Z,929.30
2018-10-03T02:54:32.578Z,929.34
2018-10-03T02:55:32.534Z,929.30
2018-10-03T02:56:32.503Z,929.33
2018-10-03T02:57:32.462Z,929.29
2018-10-03T02:58:32.417Z,929.32
2018-10-03T02:59:32.376Z,929.31
2018-10-03T03:00:32.333Z,929.29
2018-10-03T03:01:32.318Z,929.30
2018-10-03T03:02:32.241Z,929.29
2018-10-03T03:03:32.204Z,929.29
2018-10-03T03:04:32.144Z,929.29
2018-10-03T03:05:32.116Z,929.26
2018-10-03T03:06:32.078Z,929.25
2018-10-03T03:07:32.024Z,929.26
2018-10-03T03:08:31.997Z,929.22
2018-10-03T03:09:31.935Z,929.24
2018-10-03T03:10:31.878Z,929.25
2018-10-03T03:11:31.834Z,929.26
2018-10-03T03:12:31.810Z,929.22
2018-10-03T03:13:31.738Z,929.26
2018-10-03T03:14:31.711Z,929.24
2018-10-03T03:15:31.663Z,929.23
2018-10-03T03:16:31.613Z,929.25
2018-10-03T03:17:31.571Z,929.23
2018-10-03T03:18:31.521Z,929.21
2018-10-03T03:19:31.493Z,929.20
2018-10-03T03:20:31.514Z,929.19
2018-10-03T03:21:31.413Z,929.15
2018-10-03T03:22:31.331Z,929.12
2018-10-03T03:23:31.323Z,929.10
2018-10-03T03:24:31.263Z,929.07
2018-10-03T03:25:31.212Z,929.05
2018-10-03T03:26:31.176Z,929.01
2018-10-03T03:27:31.131Z,929.00
2018-10-03T03:28:31.111Z,928.98
2018-10-03T03:29:31.025Z,928.99
2018-10-03T03:30:31.012Z,928.94
2018-10-03T03:31:30.956Z,928.94
2018-10-03T03:32:30.899Z,928.96
2018-10-03T03:33:30.868Z,928.99
2018-10-03T03:34:30.813Z,928.94
2018-10-03T03:35:30.785Z,928.94
2018-10-03T03:36:30.713Z,928.93
2018-10-03T03:37:30.685Z,928.93
2018-10-03T03:38:30.683Z,928.90
2018-10-03T03:39:30.603Z,928.89
2018-10-03T03:40:30.555Z,928.91
2018-10-03T03:41:30.520Z,928.83
2018-10-03T03:42:30.460Z,928.80
2018-10-03T03:43:30.438Z,928.80
2018-10-03T03:44:30.375Z,928.73
2018-10-03T03:45:30.331Z,928.69
2018-10-03T03:46:30.279Z,928.67
2018-10-03T03:47:30.257Z,928.71
2018-10-03T03:48:30.179Z,928.67
2018-10-03T03:49:30.185Z,928.65
2018-10-03T03:50:30.096Z,928.61
2018-10-03T03:51:30.066Z,928.58
2018-10-03T03:52:30.017Z,928.59
2018-10-03T03:53:29.956Z,928.58
2018-10-03T03:54:29.933Z,928.54
2018-10-03T03:55:29.866Z,928.55
2018-10-03T03:56:29.833Z,928.59
2018-10-03T03:57:29.775Z,928.56
2018-10-03T03:58:29.746Z,928.53
2018-10-03T03:59:29.707Z,928.57
2018-10-03T04:00:29.663Z,928.57
2018-10-03T04:01:29.623Z,928.56
2018-10-03T04:02:29.566Z,928.61
2018-10-03T04:03:29.514Z,928.60
2018-10-03T04:04:29.473Z,928.61
2018-10-03T04:05:29.428Z,928.62
2018-10-03T04:06:29.396Z,928.60
2018-10-03T04:07:29.344Z,928.57
2018-10-03T04:08:29.296Z,928.48
2018-10-03T04:09:29.261Z,928.47
2018-10-03T04:10:29.216Z,928.42
2018-10-03T04:11:29.158Z,928.37
2018-10-03T04:12:29.123Z,928.35
2018-10-03T04:13:29.069Z,928.36
2018-10-03T04:14:29.029Z,928.29
2018-10-03T04:15:28.972Z,928.30
2018-10-03T04:16:28.930Z,928.27
2018-10-03T04:17:28.895Z,928.24
2018-10-03T04:18:28.851Z,928.23
2018-10-03T04:19:28.800Z,928.20
2018-10-03T04:20:28.763Z,928.18
2018-10-03T04:21:28.703Z,928.12
2018-10-03T04:22:28.672Z,928.12
2018-10-03T04:23:28.620Z,928.11
2018-10-03T04:24:28.582Z,928.12
2018-10-03T04:25:28.545Z,928.10
2018-10-03T04:26:28.498Z,928.08
2018-10-03T04:27:28.447Z,928.05
2018-10-03T04:28:28.403Z,928.06
2018-10-03T04:29:28.345Z,928.02
2018-10-03T04:30:28.315Z,928.01
2018-10-03T04:31:28.275Z,927.94
2018-10-03T04:32:28.212Z,927.99
2018-10-03T04:33:28.171Z,927.94
2018-10-03T04:34:28.132Z,927.93
2018-10-03T04:35:28.113Z,927.92
2018-10-03T04:36:28.037Z,927.91
2018-10-03T04:37:27.993Z,927.86
2018-10-03T04:38:27.943Z,927.86
2018-10-03T04:39:27.918Z,927.83
2018-10-03T04:40:27.861Z,927.82
2018-10-03T04:41:27.839Z,927.85
2018-10-03T04:42:27.769Z,927.81
2018-10-03T04:43:27.752Z,927.80
2018-10-03T04:44:27.678Z,927.84
2018-10-03T04:45:27.641Z,927.84
2018-10-03T04:46:27.615Z,927.80
2018-10-03T04:47:27.545Z,927.81
2018-10-03T04:48:27.506Z,927.81
2018-10-03T04:49:27.477Z,927.80
2018-10-03T04:50:27.416Z,927.76
2018-10-03T04:51:27.379Z,927.78
2018-10-03T04:52:27.344Z,927.78
2018-10-03T04:53:27.269Z,927.75
2018-10-03T04:54:27.220Z,927.79
2018-10-03T04:55:27.191Z,927.75
2018-10-03T04:56:27.144Z,927.73
2018-10-03T04:57:27.099Z,927.73
2018-10-03T04:58:27.045Z,927.75
2018-10-03T04:59:27.009Z,927.71
2018-10-03T05:00:26.969Z,927.70
2018-10-03T05:01:26.928Z,927.70
2018-10-03T05:02:26.885Z,927.68
2018-10-03T05:03:26.835Z,927.69
2018-10-03T05:04:26.791Z,927.69
2018-10-03T05:05:26.735Z,927.65
2018-10-03T05:06:26.697Z,927.68
2018-10-03T05:07:26.643Z,927.68
2018-10-03T05:08:26.618Z,927.61
2018-10-03T05:09:26.557Z,927.61
2018-10-03T05:10:26.526Z,927.62
2018-10-03T05:11:26.530Z,927.63
2018-10-03T05:12:26.433Z,927.59
2018-10-03T05:13:26.390Z,927.62
2018-10-03T05:14:26.327Z,927.59
2018-10-03T05:15:26.300Z,927.61
2018-10-03T05:16:26.250Z,927.65
2018-10-03T05:17:26.193Z,927.62
2018-10-03T05:18:26.157Z,927.59
2018-10-03T05:19:26.117Z,927.62
2018-10-03T05:20:26.077Z,927.62
2018-10-03T05:21:26.029Z,927.62
2018-10-03T05:22:25.979Z,927.63
2018-10-03T05:23:25.942Z,927.61
2018-10-03T05:24:25.889Z,927.59
2018-10-03T05:25:25.828Z,927.63
2018-10-03T05:26:25.799Z,927.63
2018-10-03T05:27:25.752Z,927.59
2018-10-03T05:28:25.716Z,927.62
2018-10-03T05:29:25.687Z,927.66
2018-10-03T05:30:25.639Z,927.61
2018-10-03T05:31:25.573Z,927.64
2018-10-03T05:32:25.529Z,927.66
2018-10-03T05:33:25.483Z,927.65
2018-10-03T05:34:25.454Z,927.65
2018-10-03T05:35:25.412Z,927.62
2018-10-03T05:36:25.359Z,927.64
2018-10-03T05:37:25.310Z,927.67
2018-10-03T05:38:25.263Z,927.64
2018-10-03T05:39:25.220Z,927.67
2018-10-03T05:40:25.186Z,927.70
2018-10-03T05:41:25.140Z,927.66
2018-10-03T05:42:25.089Z,927.65
2018-10-03T05:43:25.049Z,927.64
2018-10-03T05:44:24.987Z,927.63
2018-10-03T05:45:24.965Z,927.70
2018-10-03T05:46:24.889Z,927.75
2018-10-03T05:47:24.863Z,927.71
2018-10-03T05:48:24.945Z,927.76
2018-10-03T05:49:24.757Z,927.79
2018-10-03T05:50:24.743Z,927.78
2018-10-03T05:51:24.665Z,927.77
2018-10-03T05:52:24.622Z,927.79
2018-10-03T05:53:24.611Z,927.80
2018-10-03T05:54:24.553Z,927.76
2018-10-03T05:55:24.487Z,927.79
2018-10-03T05:56:24.459Z,927.77
2018-10-03T05:57:24.409Z,927.78
2018-10-03T05:58:24.351Z,927.79
2018-10-03T05:59:24.299Z,927.79
2018-10-03T06:00:24.262Z,927.79
2018-10-03T06:01:24.229Z,927.80
2018-10-03T06:02:24.171Z,927.78
2018-10-03T06:03:24.130Z,927.82
2018-10-03T06:04:24.081Z,927.82
2018-10-03T06:05:24.043Z,927.85
2018-10-03T06:06:24.008Z,927.87
2018-10-03T06:07:23.956Z,927.90
2018-10-03T06:08:23.913Z,927.87
2018-10-03T06:09:23.875Z,927.89
2018-10-03T06:10:23.811Z,927.87
2018-10-03T06:11:23.790Z,927.92
2018-10-03T06:12:23.713Z,927.89
2018-10-03T06:13:23.689Z,927.90
2018-10-03T06:14:23.639Z,927.88
2018-10-03T06:15:23.596Z,927.92
2018-10-03T06:16:23.528Z,927.87
2018-10-03T06:17:23.499Z,927.83
2018-10-03T06:18:23.515Z,927.85
2018-10-03T06:19:23.420Z,927.84
2018-10-03T06:20:23.357Z,927.85
2018-10-03T06:21:23.317Z,927.82
2018-10-03T06:22:23.278Z,927.88
2018-10-03T06:23:23.239Z,927.90
2018-10-03T06:24:23.190Z,927.86
2018-10-03T06:25:23.149Z,927.88
2018-10-03T06:26:23.094Z,927.85
2018-10-03T06:27:23.049Z,927.85
2018-10-03T06:28:23.111Z,927.85
2018-10-03T06:29:22.953Z,927.84
2018-10-03T06:30:22.909Z,927.81
2018-10-03T06:31:22.893Z,927.77
2018-10-03T06:32:22.821Z,927.80
2018-10-03T06:33:22.812Z,927.79
2018-10-03T06:34:22.760Z,927.82
2018-10-03T06:35:22.707Z,927.80
2018-10-03T06:36:22.656Z,927.80
2018-10-03T06:37:22.599Z,927.87
2018-10-03T06:38:22.548Z,927.85
2018-10-03T06:39:22.574Z,927.87
2018-10-03T06:40:22.505Z,927.87
2018-10-03T06:41:22.473Z,927.85
2018-10-03T06:42:22.372Z,927.84
2018-10-03T06:43:22.322Z,927.81
2018-10-03T06:44:22.284Z,927.81
2018-10-03T06:45:22.257Z,927.76
2018-10-03T06:46:22.199Z,927.82
2018-10-03T06:47:22.154Z,927.84
2018-10-03T06:48:22.105Z,927.81
2018-10-03T06:49:22.049Z,927.82
2018-10-03T06:50:22.034Z,927.84
2018-10-03T06:51:21.996Z,927.87
2018-10-03T06:52:21.929Z,927.87
2018-10-03T06:53:21.886Z,927.81
2018-10-03T06:54:21.816Z,927.82
2018-10-03T06:55:21.788Z,927.79
2018-10-03T06:56:21.747Z,927.80
2018-10-03T06:57:21.700Z,927.80
2018-10-03T06:58:21.640Z,927.81
2018-10-03T06:59:21.609Z,927.82
2018-10-03T07:00:21.558Z,927.87
2018-10-03T07:01:21.531Z,927.82
2018-10-03T07:02:21.485Z,927.81
2018-10-03T07:03:21.453Z,927.81
2018-10-03T07:04:21.387Z,927.77
2018-10-03T07:05:21.341Z,927.80
2018-10-03T07:06:21.299Z,927.78
2018-10-03T07:07:21.256Z,927.78
2018-10-03T07:08:21.253Z,927.76
2018-10-03T07:09:21.154Z,927.75
2018-10-03T07:10:21.122Z,927.78
2018-10-03T07:11:21.055Z,927.75
2018-10-03T07:12:21.033Z,927.79
2018-10-03T07:13:20.967Z,927.81
2018-10-03T07:14:20.923Z,927.84
2018-10-03T07:15:20.895Z,927.87
2018-10-03T07:16:20.837Z,927.87
2018-10-03T07:17:20.783Z,927.93
2018-10-03T07:18:20.753Z,927.96
2018-10-03T07:19:20.711Z,927.93
2018-10-03T07:20:20.674Z,927.97
2018-10-03T07:21:20.628Z,927.96
2018-10-03T07:22:20.611Z,927.97
2018-10-03T07:23:20.526Z,927.99
2018-10-03T07:24:20.494Z,928.00
2018-10-03T07:25:20.458Z,927.98
2018-10-03T07:26:20.403Z,927.98
2018-10-03T07:27:20.350Z,927.93
2018-10-03T07:28:20.312Z,927.93
2018-10-03T07:29:20.257Z,927.96
2018-10-03T07:30:20.194Z,927.97
2018-10-03T07:31:20.174Z,928.01
2018-10-03T07:32:20.124Z,928.01
2018-10-03T07:33:20.101Z,928.00
2018-10-03T07:34:20.042Z,928.05
2018-10-03T07:35:19.974Z,927.96
2018-10-03T07:36:19.959Z,927.94
2018-10-03T07:37:19.894Z,927.95
2018-10-03T07:38:19.849Z,927.97
2018-10-03T07:39:19.791Z,927.98
2018-10-03T07:40:19.742Z,927.99
2018-10-03T07:41:19.722Z,928.00
2018-10-03T07:42:19.672Z,928.02
2018-10-03T07:43:19.626Z,928.04
2018-10-03T07:44:19.587Z,928.04
2018-10-03T07:45:19.532Z,928.03
2018-10-03T07:46:19.495Z,928.05
2018-10-03T07:47:19.433Z,928.07
2018-10-03T07:48:19.395Z,928.06
2018-10-03T07:49:19.350Z,928.08
2018-10-03T07:50:19.298Z,928.11
2018-10-03T07:51:19.262Z,928.12
2018-10-03T07:52:19.241Z,928.14
2018-10-03T07:53:19.173Z,928.11
2018-10-03T07:54:19.137Z,928.15
2018-10-03T07:55:19.073Z,928.09
2018-10-03T07:56:19.084Z,928.11
2018-10-03T07:57:19.006Z,928.11
2018-10-03T07:58:18.931Z,928.09
2018-10-03T07:59:18.904Z,928.08
2018-10-03T08:00:18.847Z,928.10
2018-10-03T08:01:18.836Z,928.06
2018-10-03T08:02:18.759Z,928.06
2018-10-03T08:03:18.730Z,928.06
2018-10-03T08:04:18.686Z,928.05
2018-10-03T08:05:18.646Z,928.03
2018-10-03T08:06:18.595Z,928.04
2018-10-03T08:07:18.544Z,928.02
2018-10-03T08:08:18.502Z,928.08
2018-10-03T08:09:18.472Z,928.06
2018-10-03T08:10:18.415Z,928.08
2018-10-03T08:11:18.351Z,928.07
2018-10-03T08:12:18.323Z,928.11
2018-10-03T08:13:18.290Z,928.14
2018-10-03T08:14:18.214Z,928.10
2018-10-03T08:15:18.200Z,928.14
2018-10-03T08:16:18.137Z,928.11
2018-10-03T08:17:18.160Z,928.18
2018-10-03T08:18:18.036Z,928.20
2018-10-03T08:19:17.994Z,928.22
2018-10-03T08:20:17.968Z,928.23
2018-10-03T08:21:17.929Z,928.27
2018-10-03T08:22:17.866Z,928.27
2018-10-03T08:23:17.821Z,928.31
2018-10-03T08:24:17.786Z,928.35
2018-10-03T08:25:17.733Z,928.37
2018-10-03T08:26:17.696Z,928.27
2018-10-03T08:27:17.648Z,928.36
2018-10-03T08:28:17.606Z,928.35
2018-10-03T08:29:17.554Z,928.35
2018-10-03T08:30:17.513Z,928.35
2018-10-03T08:31:17.460Z,928.39
2018-10-03T08:32:17.494Z,928.39
2018-10-03T08:33:17.422Z,928.41
2018-10-03T08:34:17.318Z,928.41
2018-10-03T08:35:17.303Z,928.50
2018-10-03T08:36:17.229Z,928.55
2018-10-03T08:37:17.205Z,928.56
2018-10-03T08:38:17.149Z,928.58
2018-10-03T08:39:17.100Z,928.62
2018-10-03T08:40:17.056Z,928.59
2018-10-03T08:41:17.009Z,928.59
2018-10-03T08:42:16.964Z,928.59
2018-10-03T08:43:16.910Z,928.51
2018-10-03T08:44:16.895Z,928.52
2018-10-03T08:45:16.827Z,928.54
2018-10-03T08:46:16.797Z,928.56
2018-10-03T08:47:16.751Z,928.54
2018-10-03T08:48:16.698Z,928.58
2018-10-03T08:49:16.653Z,928.62
2018-10-03T08:50:16.588Z,928.67
2018-10-03T08:51:16.575Z,928.65
2018-10-03T08:52:16.511Z,928.67
2018-10-03T08:53:16.466Z,928.67
2018-10-03T08:54:16.424Z,928.70
2018-10-03T08:55:16.393Z,928.71
2018-10-03T08:56:16.331Z,928.74
2018-10-03T08:57:16.292Z,928.79
2018-10-03T08:58:16.347Z,928.84
2018-10-03T08:59:16.201Z,928.83
2018-10-03T09:00:16.144Z,928.82
2018-10-03T09:01:16.098Z,928.84
2018-10-03T09:02:16.085Z,928.87
2018-10-03T09:03:16.037Z,928.89
2018-10-03T09:04:15.957Z,928.83
2018-10-03T09:05:15.917Z,928.85
2018-10-03T09:06:15.884Z,928.90
2018-10-03T09:07:15.839Z,928.91
2018-10-03T09:08:15.784Z,928.93
2018-10-03T09:09:15.758Z,928.92
2018-10-03T09:10:15.706Z,928.97
2018-10-03T09:11:15.647Z,928.96
2018-10-03T09:12:15.628Z,929.02
2018-10-03T09:13:15.552Z,928.96
2018-10-03T09:14:15.518Z,928.94
2018-10-03T09:15:15.469Z,928.98
2018-10-03T09:16:15.428Z,928.99
2018-10-03T09:17:15.371Z,928.99
2018-10-03T09:18:15.341Z,929.03
2018-10-03T09:19:15.296Z,929.03
2018-10-03T09:20:15.255Z,929.07
2018-10-03T09:21:15.207Z,929.05
2018-10-03T09:22:15.165Z,929.04
2018-10-03T09:23:15.114Z,929.06
2018-10-03T09:24:15.091Z,929.10
2018-10-03T09:25:15.017Z,929.13
2018-10-03T09:26:14.978Z,929.14
2018-10-03T09:27:14.942Z,929.10
2018-10-03T09:28:14.916Z,929.08
2018-10-03T09:29:14.856Z,929.15
2018-10-03T09:30:14.804Z,929.00
2018-10-03T09:31:14.775Z,928.91
2018-10-03T09:32:14.725Z,929.02
2018-10-03T09:33:14.687Z,929.00
2018-10-03T09:34:14.642Z,928.95
2018-10-03T09:35:14.583Z,928.94
2018-10-03T09:36:14.554Z,928.93
2018-10-03T09:37:14.520Z,928.95
2018-10-03T09:38:14.492Z,928.95
2018-10-03T09:39:14.429Z,928.94
2018-10-03T09:40:14.387Z,928.96
2018-10-03T09:41:14.325Z,929.00
2018-10-03T09:42:14.292Z,929.05
2018-10-03T09:43:14.257Z,929.06
2018-10-03T09:44:14.212Z,929.10
2018-10-03T09:45:14.166Z,929.05
2018-10-03T09:46:14.124Z,929.07
2018-10-03T09:47:14.080Z,929.06
2018-10-03T09:48:14.031Z,929.03
2018-10-03T09:49:13.979Z,929.05
2018-10-03T09:50:13.971Z,929.05
2018-10-03T09:51:13.902Z,929.04
2018-10-03T09:52:13.850Z,929.02
2018-10-03T09:53:13.815Z,929.05
2018-10-03T09:54:13.762Z,929.03
2018-10-03T09:55:13.728Z,929.01
2018-10-03T09:56:13.692Z,929.06
2018-10-03T09:57:13.634Z,929.05
2018-10-03T09:58:13.595Z,929.10
2018-10-03T09:59:13.564Z,929.14
2018-10-03T10:00:13.502Z,929.11
2018-10-03T10:01:13.455Z,929.14
2018-10-03T10:02:13.403Z,929.15
2018-10-03T10:03:13.375Z,929.21
2018-10-03T10:04:13.337Z,929.24
2018-10-03T10:05:13.275Z,929.21
2018-10-03T10:06:13.235Z,929.26
2018-10-03T10:07:13.193Z,929.23
2018-10-03T10:08:13.143Z,929.36
2018-10-03T10:09:13.118Z,929.59
2018-10-03T10:10:13.123Z,929.73
2018-10-03T10:11:13.147Z,929.65
2018-10-03T10:12:12.987Z,929.69
2018-10-03T10:13:12.937Z,929.62
2018-10-03T10:14:12.906Z,929.47
2018-10-03T10:15:12.872Z,929.51
2018-10-03T10:16:12.819Z,929.46
2018-10-03T10:17:12.763Z,929.46
2018-10-03T10:18:12.724Z,929.46
2018-10-03T10:19:12.670Z,929.49
2018-10-03T10:20:12.648Z,929.51
2018-10-03T10:21:12.595Z,929.56
2018-10-03T10:22:12.544Z,929.61
2018-10-03T10:23:12.522Z,929.60
2018-10-03T10:24:12.477Z,929.59
2018-10-03T10:25:12.422Z,929.59
2018-10-03T10:26:12.380Z,929.65
2018-10-03T10:27:12.351Z,929.62
2018-10-03T10:28:12.292Z,929.65
2018-10-03T10:29:12.247Z,929.69
2018-10-03T10:30:12.233Z,929.80
2018-10-03T10:31:12.203Z,929.71
2018-10-03T10:32:12.217Z,929.74
2018-10-03T10:33:12.166Z,929.78
2018-10-03T10:34:12.056Z,929.80
2018-10-03T10:35:12.012Z,929.81
2018-10-03T10:36:11.961Z,929.85
2018-10-03T10:37:11.937Z,929.84
2018-10-03T10:38:11.892Z,929.89
2018-10-03T10:39:11.827Z,929.95
2018-10-03T10:40:11.813Z,930.01
2018-10-03T10:41:11.866Z,930.02
2018-10-03T10:42:11.691Z,930.00
2018-10-03T10:43:11.706Z,930.00
2018-10-03T10:44:11.613Z,930.04
2018-10-03T10:45:11.575Z,930.02
2018-10-03T10:46:11.562Z,930.02
2018-10-03T10:47:11.519Z,930.02
2018-10-03T10:48:11.454Z,930.05
2018-10-03T10:49:11.405Z,930.04
2018-10-03T10:50:11.447Z,930.01
2018-10-03T10:51:11.332Z,930.00
2018-10-03T10:52:11.311Z,930.03
2018-10-03T10:53:11.257Z,930.02
2018-10-03T10:54:11.221Z,930.02
2018-10-03T10:55:11.162Z,930.10
2018-10-03T10:56:11.136Z,930.09
2018-10-03T10:57:11.074Z,930.12
2018-10-03T10:58:11.028Z,930.14
2018-10-03T10:59:11.000Z,930.11
2018-10-03T11:00:10.975Z,930.14
2018-10-03T11:01:10.904Z,930.15
2018-10-03T11:02:10.872Z,930.12
2018-10-03T11:03:10.807Z,930.14
2018-10-03T11:04:10.784Z,930.12
2018-10-03T11:05:10.752Z,930.14
2018-10-03T11:06:10.711Z,930.12
2018-10-03T11:07:10.664Z,930.13
2018-10-03T11:08:10.616Z,930.10
2018-10-03T11:09:10.580Z,930.13
2018-10-03T11:10:10.547Z,930.07
2018-10-03T11:11:10.506Z,930.11
2018-10-03T11:12:10.448Z,930.08
2018-10-03T11:13:10.400Z,930.02
2018-10-03T11:14:10.367Z,930.00
2018-10-03T11:15:10.337Z,929.98
2018-10-03T11:16:10.291Z,930.00
2018-10-03T11:17:10.266Z,930.06
2018-10-03T11:18:10.194Z,930.04
2018-10-03T11:19:10.143Z,930.02
2018-10-03T11:20:10.118Z,930.02
2018-10-03T11:21:10.057Z,930.02
2018-10-03T11:22:10.015Z,930.03
2018-10-03T11:23:09.988Z,930.00
2018-10-03T11:24:10.028Z,929.98
2018-10-03T11:25:09.920Z,929.99
2018-10-03T11:26:09.859Z,930.00
2018-10-03T11:27:09.823Z,930.00
2018-10-03T11:28:09.771Z,930.00
2018-10-03T11:29:09.738Z,929.97
2018-10-03T11:30:09.707Z,930.00
2018-10-03T11:31:09.660Z,930.02
2018-10-03T11:32:09.651Z,930.03
2018-10-03T11:33:09.571Z,930.05
2018-10-03T11:34:09.525Z,930.05
2018-10-03T11:35:09.481Z,930.05
2018-10-03T11:36:09.447Z,930.02
2018-10-03T11:37:09.385Z,930.02
2018-10-03T11:38:09.407Z,930.03
2018-10-03T11:39:09.314Z,930.02
2018-10-03T11:40:09.292Z,929.98
2018-10-03T11:41:09.232Z,930.01
2018-10-03T11:42:09.189Z,930.01
2018-10-03T11:43:09.140Z,930.03
2018-10-03T11:44:09.122Z,930.04
2018-10-03T11:45:09.091Z,930.05
2018-10-03T11:46:09.029Z,930.05
2018-10-03T11:47:08.979Z,930.01
2018-10-03T11:48:08.924Z,930.03
2018-10-03T11:49:08.886Z,930.03
2018-10-03T11:50:08.861Z,930.08
2018-10-03T11:51:08.820Z,930.04
2018-10-03T11:52:08.779Z,930.02
2018-10-03T11:53:08.746Z,930.10
2018-10-03T11:54:08.683Z,930.07
2018-10-03T11:55:08.647Z,930.07
2018-10-03T11:56:08.603Z,930.04
2018-10-03T11:57:08.655Z,930.09
2018-10-03T11:58:08.530Z,930.09
2018-10-03T11:59:08.478Z,930.10
2018-10-03T12:00:08.463Z,930.13
2018-10-03T12:01:08.423Z,930.10
2018-10-03T12:02:08.348Z,930.16
2018-10-03T12:03:08.406Z,930.16
2018-10-03T12:04:08.272Z,930.13
2018-10-03T12:05:08.218Z,930.08
2018-10-03T12:06:08.215Z,930.06
2018-10-03T12:07:08.155Z,930.09
2018-10-03T12:08:08.106Z,930.04
2018-10-03T12:09:08.078Z,930.01
2018-10-03T12:10:08.046Z,930.04
2018-10-03T12:11:07.992Z,930.02
2018-10-03T12:12:07.932Z,930.07
2018-10-03T12:13:07.908Z,930.07
2018-10-03T12:14:07.857Z,930.05
2018-10-03T12:15:07.816Z,930.06
2018-10-03T12:16:07.767Z,930.10
2018-10-03T12:17:07.723Z,930.08
2018-10-03T12:18:07.717Z,930.06
2018-10-03T12:19:07.652Z,930.06
2018-10-03T12:20:07.610Z,930.04
2018-10-03T12:21:07.571Z,930.00
2018-10-03T12:22:07.512Z,930.04
2018-10-03T12:23:07.472Z,929.96
2018-10-03T12:24:07.447Z,930.01
2018-10-03T12:25:07.437Z,929.98
2018-10-03T12:26:07.359Z,929.99
2018-10-03T12:27:07.344Z,929.96
2018-10-03T12:28:07.276Z,929.99